Climatologie pour Saint-Brevin les Pins
Jour • Résumé pour février 17, 2017 Système :  Métrique    Anglais   Mixte
« - 1 jour
+ 1 jour »
Jour Semaine Mois Année Personnalisé
  Maximum : Minimum : Moyenne :
Température sous abri : 14.8 °C 0.8 °C 6.8 °C
Point de rosée : 11.2 °C 0.4 °C 5.6 °C
Humidité : 99 % 78 % 93 %
Vitesse du vent : 0.0 km/h 0.0 km/h 0 km/h
Rafale : 0.0 km/h - -
Direction :- - North
Pression : 1030.4 hPa 1025.6 hPa -
Précipitations : 0.0 mm    
Historical Graphs
 
 
Tableau de données pour février 17, 2017
Heure Tempé Pt rosée Pression Vent Vitesse Rafale Humidité Taux pluie (/hr) Soleil
00:00 5.2 °C 4.8 °C 1030.4 hPa Calm     97 % 0.0 mm 0 W/m2
00:10 4.8 °C 4.3 °C 1030.4 hPa Calm     97 % 0.0 mm 0 W/m2
00:15 4.7 °C 4.3 °C 1030.4 hPa Calm     97 % 0.0 mm 0 W/m2
00:20 4.6 °C 4.2 °C 1030.4 hPa Calm     97 % 0.0 mm 0 W/m2
00:25 4.5 °C 4.1 °C 1030.4 hPa Calm     97 % 0.0 mm 0 W/m2
00:30 4.5 °C 4.1 °C 1030.4 hPa Calm     97 % 0.0 mm 0 W/m2
00:40 4.1 °C 3.6 °C 1030.0 hPa Calm     97 % 0.0 mm 0 W/m2
00:45 4.3 °C 3.9 °C 1030.0 hPa Calm     97 % 0.0 mm 0 W/m2
00:50 4.3 °C 3.8 °C 1030.0 hPa Calm     97 % 0.0 mm 0 W/m2
01:00 3.9 °C 3.5 °C 1030.0 hPa Calm     97 % 0.0 mm 0 W/m2
01:10 3.9 °C 3.5 °C 1030.0 hPa Calm     97 % 0.0 mm 0 W/m2
01:15 3.8 °C 3.4 °C 1030.0 hPa Calm     97 % 0.0 mm 0 W/m2
01:25 3.6 °C 3.2 °C 1030.0 hPa Calm     97 % 0.0 mm 0 W/m2
01:30 3.4 °C 3.0 °C 1030.0 hPa Calm     97 % 0.0 mm 0 W/m2
01:40 3.2 °C 2.7 °C 1030.0 hPa Calm     97 % 0.0 mm 0 W/m2
01:45 3.1 °C 2.6 °C 1030.0 hPa Calm     97 % 0.0 mm 0 W/m2
01:55 3.0 °C 2.6 °C 1029.7 hPa Calm     97 % 0.0 mm 0 W/m2
02:00 2.9 °C 2.5 °C 1029.7 hPa Calm     97 % 0.0 mm 0 W/m2
02:10 2.9 °C 2.5 °C 1029.7 hPa Calm     97 % 0.0 mm 0 W/m2
02:15 2.8 °C 2.4 °C 1029.7 hPa Calm     97 % 0.0 mm 0 W/m2
02:20 2.7 °C 2.2 °C 1029.7 hPa Calm     97 % 0.0 mm 0 W/m2
02:25 2.6 °C 2.2 °C 1029.7 hPa Calm     97 % 0.0 mm 0 W/m2
02:30 2.8 °C 2.3 °C 1029.7 hPa Calm     97 % 0.0 mm 0 W/m2
02:35 2.9 °C 2.5 °C 1029.7 hPa Calm     97 % 0.0 mm 0 W/m2
02:40 3.0 °C 2.7 °C 1029.7 hPa Calm     98 % 0.0 mm 0 W/m2
02:50 2.7 °C 2.3 °C 1029.7 hPa Calm     97 % 0.0 mm 0 W/m2
03:05 2.7 °C 2.3 °C 1029.7 hPa Calm     97 % 0.0 mm 0 W/m2
03:10 2.4 °C 2.0 °C 1029.7 hPa Calm     97 % 0.0 mm 0 W/m2
03:15 2.5 °C 2.1 °C 1029.7 hPa Calm     97 % 0.0 mm 0 W/m2
03:25 2.7 °C 2.4 °C 1029.7 hPa Calm     98 % 0.0 mm 0 W/m2
03:35 2.6 °C 2.2 °C 1029.7 hPa Calm     97 % 0.0 mm 0 W/m2
03:40 2.6 °C 2.2 °C 1029.7 hPa Calm     97 % 0.0 mm 0 W/m2
03:50 2.5 °C 2.1 °C 1029.3 hPa Calm     97 % 0.0 mm 0 W/m2
03:55 2.7 °C 2.4 °C 1029.3 hPa Calm     98 % 0.0 mm 0 W/m2
04:05 2.7 °C 2.2 °C 1029.3 hPa Calm     97 % 0.0 mm 0 W/m2
04:10 2.7 °C 2.2 °C 1029.3 hPa Calm     97 % 0.0 mm 0 W/m2
04:20 2.3 °C 1.9 °C 1029.3 hPa Calm     97 % 0.0 mm 0 W/m2
04:25 2.3 °C 1.9 °C 1029.3 hPa Calm     97 % 0.0 mm 0 W/m2
04:30 2.2 °C 1.7 °C 1029.3 hPa Calm     97 % 0.0 mm 0 W/m2
04:40 1.8 °C 1.4 °C 1029.0 hPa Calm     97 % 0.0 mm 0 W/m2
04:45 1.7 °C 1.3 °C 1029.0 hPa Calm     97 % 0.0 mm 0 W/m2
04:55 1.8 °C 1.4 °C 1029.0 hPa Calm     97 % 0.0 mm 0 W/m2
05:00 1.8 °C 1.4 °C 1029.0 hPa Calm     97 % 0.0 mm 0 W/m2
05:10 1.9 °C 1.6 °C 1029.0 hPa Calm     98 % 0.0 mm 0 W/m2
05:15 2.2 °C 1.9 °C 1029.0 hPa Calm     98 % 0.0 mm 0 W/m2
05:20 2.3 °C 2.0 °C 1029.0 hPa Calm     98 % 0.0 mm 0 W/m2
05:25 2.3 °C 2.0 °C 1029.0 hPa Calm     98 % 0.0 mm 0 W/m2
05:30 1.9 °C 1.5 °C 1029.0 hPa Calm     97 % 0.0 mm 0 W/m2
05:40 1.6 °C 1.2 °C 1029.0 hPa Calm     97 % 0.0 mm 0 W/m2
05:45 1.4 °C 1.0 °C 1029.0 hPa Calm     97 % 0.0 mm 0 W/m2
05:55 1.1 °C 0.7 °C 1029.0 hPa Calm     97 % 0.0 mm 0 W/m2
06:00 1.0 °C 0.6 °C 1029.0 hPa Calm     97 % 0.0 mm 0 W/m2
06:10 0.9 °C 0.6 °C 1029.0 hPa Calm     98 % 0.0 mm 0 W/m2
06:20 1.1 °C 0.8 °C 1029.0 hPa Calm     98 % 0.0 mm 0 W/m2
06:25 1.2 °C 0.9 °C 1029.0 hPa Calm     98 % 0.0 mm 0 W/m2
06:30 1.1 °C 0.8 °C 1029.0 hPa Calm     98 % 0.0 mm 0 W/m2
06:40 1.3 °C 1.0 °C 1029.0 hPa Calm     98 % 0.0 mm 0 W/m2
06:45 1.1 °C 0.8 °C 1029.0 hPa Calm     98 % 0.0 mm 0 W/m2
06:55 0.8 °C 0.4 °C 1029.0 hPa Calm     97 % 0.0 mm 0 W/m2
07:00 0.8 °C 0.4 °C 1029.0 hPa Calm     97 % 0.0 mm 0 W/m2
07:10 1.2 °C 0.9 °C 1029.0 hPa Calm     98 % 0.0 mm 0 W/m2
07:15 1.2 °C 0.9 °C 1028.7 hPa Calm     98 % 0.0 mm 0 W/m2
07:20 1.3 °C 1.0 °C 1028.7 hPa Calm     98 % 0.0 mm 0 W/m2
07:30 1.6 °C 1.3 °C 1028.7 hPa Calm     98 % 0.0 mm 0 W/m2
07:40 1.9 °C 1.7 °C 1028.7 hPa Calm     98 % 0.0 mm 0 W/m2
07:45 2.1 °C 1.8 °C 1028.7 hPa Calm     98 % 0.0 mm 0 W/m2
07:55 1.9 °C 1.7 °C 1028.7 hPa Calm     98 % 0.0 mm 0 W/m2
08:00 2.1 °C 1.8 °C 1028.7 hPa Calm     98 % 0.0 mm 0 W/m2
08:10 1.6 °C 1.3 °C 1028.7 hPa Calm     98 % 0.0 mm 5 W/m2
08:15 1.3 °C 0.9 °C 1029.0 hPa Calm     97 % 0.0 mm 7 W/m2
08:25 0.8 °C 0.4 °C 1029.0 hPa Calm     97 % 0.0 mm 12 W/m2
08:30 0.9 °C 0.7 °C 1029.0 hPa Calm     98 % 0.0 mm 16 W/m2
08:40 1.2 °C 0.9 °C 1029.0 hPa Calm     98 % 0.0 mm 25 W/m2
08:50 1.4 °C 1.2 °C 1029.0 hPa Calm     98 % 0.0 mm 32 W/m2
08:55 1.8 °C 1.5 °C 1029.0 hPa Calm     98 % 0.0 mm 32 W/m2
09:00 2.0 °C 1.7 °C 1029.3 hPa Calm     98 % 0.0 mm 37 W/m2
09:10 2.6 °C 2.3 °C 1029.3 hPa Calm     98 % 0.0 mm 42 W/m2
09:15 3.2 °C 2.9 °C 1029.3 hPa Calm     98 % 0.0 mm 42 W/m2
09:25 3.5 °C 3.2 °C 1029.0 hPa Calm     98 % 0.0 mm 51 W/m2
09:30 4.1 °C 3.9 °C 1029.3 hPa Calm     99 % 0.0 mm 54 W/m2
09:40 4.7 °C 4.6 °C 1029.3 hPa Calm     99 % 0.0 mm 56 W/m2
09:45 4.9 °C 4.6 °C 1029.3 hPa Calm     98 % 0.0 mm 58 W/m2
09:55 5.1 °C 4.8 °C 1029.3 hPa Calm     98 % 0.0 mm 62 W/m2
10:00 5.4 °C 5.1 °C 1029.3 hPa Calm     98 % 0.0 mm 62 W/m2
10:10 6.0 °C 5.9 °C 1029.3 hPa Calm     99 % 0.0 mm 65 W/m2
10:15 6.3 °C 6.1 °C 1029.3 hPa Calm     99 % 0.0 mm 67 W/m2
10:25 7.1 °C 6.8 °C 1029.3 hPa Calm     98 % 0.0 mm 274 W/m2
10:30 7.4 °C 7.1 °C 1029.3 hPa Calm     98 % 0.0 mm 285 W/m2
10:40 8.1 °C 7.8 °C 1029.3 hPa Calm     98 % 0.0 mm 308 W/m2
10:45 8.3 °C 7.9 °C 1029.3 hPa Calm     97 % 0.0 mm 320 W/m2
10:55 9.0 °C 8.4 °C 1029.3 hPa Calm     96 % 0.0 mm 339 W/m2
11:00 9.3 °C 8.6 °C 1029.3 hPa Calm     95 % 0.0 mm 343 W/m2
11:10 10.4 °C 9.3 °C 1029.3 hPa Calm     93 % 0.0 mm 364 W/m2
11:20 10.9 °C 9.3 °C 1029.3 hPa Calm     90 % 0.0 mm 371 W/m2
11:25 11.2 °C 9.5 °C 1029.3 hPa Calm     89 % 0.0 mm 388 W/m2
11:30 11.4 °C 9.6 °C 1029.3 hPa Calm     89 % 0.0 mm 399 W/m2
11:40 11.6 °C 9.5 °C 1029.3 hPa Calm     87 % 0.0 mm 397 W/m2
11:50 12.1 °C 9.6 °C 1029.3 hPa Calm     85 % 0.0 mm 425 W/m2
11:55 12.3 °C 9.8 °C 1029.3 hPa Calm     85 % 0.0 mm 427 W/m2
12:00 12.6 °C 9.9 °C 1029.3 hPa Calm     84 % 0.0 mm 431 W/m2
12:10 12.9 °C 10.1 °C 1029.0 hPa Calm     83 % 0.0 mm 454 W/m2
12:15 12.9 °C 9.9 °C 1029.0 hPa Calm     82 % 0.0 mm 461 W/m2
12:20 13.2 °C 10.2 °C 1029.0 hPa Calm     82 % 0.0 mm 461 W/m2
12:25 13.4 °C 10.6 °C 1029.0 hPa Calm     83 % 0.0 mm 461 W/m2
12:30 13.3 °C 10.1 °C 1028.7 hPa Calm     81 % 0.0 mm 464 W/m2
12:40 13.5 °C 10.7 °C 1028.7 hPa Calm     83 % 0.0 mm 462 W/m2
12:45 13.6 °C 10.5 °C 1028.7 hPa Calm     82 % 0.0 mm 452 W/m2
12:50 13.6 °C 10.6 °C 1028.7 hPa Calm     82 % 0.0 mm 492 W/m2
12:55 13.9 °C 10.9 °C 1028.7 hPa Calm     82 % 0.0 mm 503 W/m2
13:05 13.7 °C 10.7 °C 1028.7 hPa Calm     82 % 0.0 mm 531 W/m2
13:10 14.0 °C 10.6 °C 1028.7 hPa Calm     80 % 0.0 mm 547 W/m2
13:15 14.4 °C 11.0 °C 1028.7 hPa Calm     80 % 0.0 mm 420 W/m2
13:20 14.3 °C 10.9 °C 1028.3 hPa Calm     80 % 0.0 mm 663 W/m2
13:25 14.8 °C 11.2 °C 1028.3 hPa Calm     79 % 0.0 mm 603 W/m2
13:30 14.4 °C 10.7 °C 1028.3 hPa Calm     78 % 0.0 mm 230 W/m2
13:40 14.2 °C 10.6 °C 1028.3 hPa Calm     79 % 0.0 mm 229 W/m2
13:45 13.8 °C 10.2 °C 1028.3 hPa Calm     79 % 0.0 mm 156 W/m2
13:55 14.3 °C 10.5 °C 1028.0 hPa Calm     78 % 0.0 mm 580 W/m2
14:00 14.6 °C 11.0 °C 1028.0 hPa Calm     79 % 0.0 mm 606 W/m2
14:10 14.3 °C 10.7 °C 1028.0 hPa Calm     79 % 0.0 mm 517 W/m2
14:20 14.1 °C 10.7 °C 1028.0 hPa Calm     80 % 0.0 mm 480 W/m2
14:35 14.1 °C 10.7 °C 1027.7 hPa Calm     80 % 0.0 mm 445 W/m2
14:40 14.1 °C 10.7 °C 1027.7 hPa Calm     80 % 0.0 mm 436 W/m2
14:45 14.2 °C 10.8 °C 1027.7 hPa Calm     80 % 0.0 mm 443 W/m2
14:55 14.4 °C 10.8 °C 1027.3 hPa Calm     79 % 0.0 mm 417 W/m2
15:00 14.6 °C 10.8 °C 1027.3 hPa Calm     78 % 0.0 mm 408 W/m2
15:10 14.2 °C 10.8 °C 1027.3 hPa Calm     80 % 0.0 mm 387 W/m2
15:15 14.0 °C 10.8 °C 1027.3 hPa Calm     81 % 0.0 mm 373 W/m2
15:20 13.7 °C 10.7 °C 1027.3 hPa Calm     82 % 0.0 mm 360 W/m2
15:30 13.6 °C 10.6 °C 1027.0 hPa Calm     82 % 0.0 mm 343 W/m2
15:40 13.7 °C 10.5 °C 1027.0 hPa Calm     81 % 0.0 mm 343 W/m2
15:45 13.9 °C 10.9 °C 1027.0 hPa Calm     82 % 0.0 mm 332 W/m2
15:50 13.7 °C 10.5 °C 1027.0 hPa Calm     81 % 0.0 mm 325 W/m2
15:55 13.8 °C 10.6 °C 1027.0 hPa Calm     81 % 0.0 mm 308 W/m2
16:00 13.5 °C 10.3 °C 1027.0 hPa Calm     81 % 0.0 mm 304 W/m2
16:10 13.4 °C 10.4 °C 1027.0 hPa Calm     82 % 0.0 mm 285 W/m2
16:15 13.4 °C 10.4 °C 1027.0 hPa Calm     82 % 0.0 mm 279 W/m2
16:20 13.5 °C 10.3 °C 1027.0 hPa Calm     81 % 0.0 mm 272 W/m2
16:25 13.3 °C 10.1 °C 1026.6 hPa Calm     81 % 0.0 mm 262 W/m2
16:30 13.2 °C 10.2 °C 1027.0 hPa Calm     82 % 0.0 mm 253 W/m2
16:40 13.1 °C 10.2 °C 1027.0 hPa Calm     83 % 0.0 mm 225 W/m2
16:45 13.2 °C 10.3 °C 1027.0 hPa Calm     83 % 0.0 mm 169 W/m2
16:55 12.8 °C 10.2 °C 1026.6 hPa Calm     84 % 0.0 mm 123 W/m2
17:00 12.7 °C 10.0 °C 1026.6 hPa Calm     84 % 0.0 mm 102 W/m2
17:10 12.4 °C 9.8 °C 1026.6 hPa Calm     84 % 0.0 mm 60 W/m2
17:15 12.4 °C 10.0 °C 1026.6 hPa Calm     85 % 0.0 mm 53 W/m2
17:20 12.3 °C 9.9 °C 1026.6 hPa Calm     85 % 0.0 mm 51 W/m2
17:30 12.2 °C 9.9 °C 1026.3 hPa Calm     86 % 0.0 mm 46 W/m2
17:40 11.8 °C 9.7 °C 1026.3 hPa Calm     87 % 0.0 mm 40 W/m2
17:45 11.7 °C 9.6 °C 1026.3 hPa Calm     87 % 0.0 mm 39 W/m2
17:55 11.4 °C 9.4 °C 1026.3 hPa Calm     87 % 0.0 mm 30 W/m2
18:00 11.2 °C 9.3 °C 1026.3 hPa Calm     88 % 0.0 mm 23 W/m2
18:10 10.8 °C 8.9 °C 1026.3 hPa Calm     88 % 0.0 mm 19 W/m2
18:15 10.3 °C 8.7 °C 1026.3 hPa Calm     90 % 0.0 mm 14 W/m2
18:20 9.9 °C 8.4 °C 1026.3 hPa Calm     90 % 0.0 mm 12 W/m2
18:30 9.4 °C 8.0 °C 1026.3 hPa Calm     91 % 0.0 mm 5 W/m2
18:40 8.9 °C 7.9 °C 1026.3 hPa Calm     93 % 0.0 mm 0 W/m2
18:50 8.5 °C 7.4 °C 1026.3 hPa Calm     93 % 0.0 mm 0 W/m2
18:55 8.1 °C 7.0 °C 1026.3 hPa Calm     93 % 0.0 mm 0 W/m2
19:00 7.8 °C 6.9 °C 1026.3 hPa Calm     94 % 0.0 mm 0 W/m2
19:10 7.5 °C 6.6 °C 1026.3 hPa Calm     94 % 0.0 mm 0 W/m2
19:25 7.1 °C 6.3 °C 1026.6 hPa Calm     95 % 0.0 mm 0 W/m2
19:30 6.7 °C 6.0 °C 1026.6 hPa Calm     95 % 0.0 mm 0 W/m2
19:40 6.7 °C 6.1 °C 1026.6 hPa Calm     96 % 0.0 mm 0 W/m2
19:50 6.4 °C 5.9 °C 1026.3 hPa Calm     96 % 0.0 mm 0 W/m2
20:00 6.3 °C 5.7 °C 1026.3 hPa Calm     96 % 0.0 mm 0 W/m2
20:10 5.9 °C 5.4 °C 1026.3 hPa Calm     96 % 0.0 mm 0 W/m2
20:15 5.7 °C 5.1 °C 1026.3 hPa Calm     96 % 0.0 mm 0 W/m2
20:25 5.6 °C 5.0 °C 1026.3 hPa Calm     96 % 0.0 mm 0 W/m2
20:35 5.2 °C 4.6 °C 1026.3 hPa Calm     96 % 0.0 mm 0 W/m2
20:40 5.5 °C 5.1 °C 1026.3 hPa Calm     97 % 0.0 mm 0 W/m2
20:45 5.6 °C 5.2 °C 1026.3 hPa Calm     97 % 0.0 mm 0 W/m2
20:50 5.6 °C 5.0 °C 1026.3 hPa Calm     96 % 0.0 mm 0 W/m2
20:55 5.4 °C 4.9 °C 1026.3 hPa Calm     96 % 0.0 mm 0 W/m2
21:00 5.2 °C 4.6 °C 1026.3 hPa Calm     96 % 0.0 mm 0 W/m2
21:10 5.1 °C 4.6 °C 1026.3 hPa Calm     97 % 0.0 mm 0 W/m2
21:15 4.9 °C 4.3 °C 1026.3 hPa Calm     96 % 0.0 mm 0 W/m2
21:20 4.6 °C 4.0 °C 1026.3 hPa Calm     96 % 0.0 mm 0 W/m2
21:25 4.6 °C 4.2 °C 1026.3 hPa Calm     97 % 0.0 mm 0 W/m2
21:30 4.4 °C 3.8 °C 1026.3 hPa Calm     96 % 0.0 mm 0 W/m2
21:40 4.4 °C 4.0 °C 1026.3 hPa Calm     97 % 0.0 mm 0 W/m2
21:45 4.4 °C 4.0 °C 1026.3 hPa Calm     97 % 0.0 mm 0 W/m2
21:50 4.4 °C 4.0 °C 1026.3 hPa Calm     97 % 0.0 mm 0 W/m2
22:00 4.3 °C 3.9 °C 1026.3 hPa Calm     97 % 0.0 mm 0 W/m2
22:10 4.6 °C 4.1 °C 1026.3 hPa Calm     97 % 0.0 mm 0 W/m2
22:15 4.6 °C 4.1 °C 1026.3 hPa Calm     97 % 0.0 mm 0 W/m2
22:25 4.6 °C 4.1 °C 1026.3 hPa Calm     97 % 0.0 mm 0 W/m2
22:30 4.6 °C 4.1 °C 1026.3 hPa Calm     97 % 0.0 mm 0 W/m2
22:40 4.6 °C 4.1 °C 1026.0 hPa Calm     97 % 0.0 mm 0 W/m2
22:45 4.7 °C 4.3 °C 1026.0 hPa Calm     97 % 0.0 mm 0 W/m2
22:50 4.7 °C 4.3 °C 1026.0 hPa Calm     97 % 0.0 mm 0 W/m2
23:00 4.9 °C 4.5 °C 1026.0 hPa Calm     97 % 0.0 mm 0 W/m2
23:10 5.6 °C 5.1 °C 1026.0 hPa Calm     97 % 0.0 mm 0 W/m2
23:15 5.7 °C 5.3 °C 1026.0 hPa Calm     97 % 0.0 mm 0 W/m2
23:20 5.9 °C 5.3 °C 1026.0 hPa Calm     96 % 0.0 mm 0 W/m2
23:25 5.9 °C 5.3 °C 1026.0 hPa Calm     96 % 0.0 mm 0 W/m2
23:30 6.0 °C 5.4 °C 1026.0 hPa Calm     96 % 0.0 mm 0 W/m2
23:40 6.1 °C 5.3 °C 1025.6 hPa Calm     95 % 0.0 mm 0 W/m2
23:45 6.3 °C 5.5 °C 1025.6 hPa Calm     95 % 0.0 mm 0 W/m2
23:50 6.3 °C 5.4 °C 1025.6 hPa Calm     94 % 0.0 mm 0 W/m2
Avec l'autorisation de Weather Underground - 1.5 mb